sensor_id;sensor_type;location;lat;lon;timestamp;pressure;altitude;pressure_sealevel;temperature
37452;BMP280;23314;51.114;6.900;2022-08-19T00:01:20;101012.19;;;21.28
37452;BMP280;23314;51.114;6.900;2022-08-19T00:03:46;101012.66;;;21.27
37452;BMP280;23314;51.114;6.900;2022-08-19T00:06:11;101011.38;;;21.22
37452;BMP280;23314;51.114;6.900;2022-08-19T00:08:37;101015.34;;;21.21
37452;BMP280;23314;51.114;6.900;2022-08-19T00:11:02;101021.69;;;21.18
37452;BMP280;23314;51.114;6.900;2022-08-19T00:13:28;101028.34;;;21.17
37452;BMP280;23314;51.114;6.900;2022-08-19T00:15:54;101020.66;;;21.15
37452;BMP280;23314;51.114;6.900;2022-08-19T00:18:20;101017.44;;;21.11
37452;BMP280;23314;51.114;6.900;2022-08-19T00:20:45;101015.66;;;21.08
37452;BMP280;23314;51.114;6.900;2022-08-19T00:23:10;101018.09;;;21.06
37452;BMP280;23314;51.114;6.900;2022-08-19T00:25:36;101015.84;;;21.05
37452;BMP280;23314;51.114;6.900;2022-08-19T00:28:02;101012.09;;;21.02
37452;BMP280;23314;51.114;6.900;2022-08-19T00:30:28;101021.97;;;20.99
37452;BMP280;23314;51.114;6.900;2022-08-19T00:32:53;101012.31;;;20.98
37452;BMP280;23314;51.114;6.900;2022-08-19T00:35:20;101021.41;;;20.95
37452;BMP280;23314;51.114;6.900;2022-08-19T00:37:47;101025.78;;;20.93
37452;BMP280;23314;51.114;6.900;2022-08-19T00:40:14;101029.44;;;20.90
37452;BMP280;23314;51.114;6.900;2022-08-19T00:42:40;101020.78;;;20.86
37452;BMP280;23314;51.114;6.900;2022-08-19T00:45:11;101021.22;;;20.84
37452;BMP280;23314;51.114;6.900;2022-08-19T00:47:36;101023.38;;;20.80
37452;BMP280;23314;51.114;6.900;2022-08-19T00:50:02;101015.75;;;20.78
37452;BMP280;23314;51.114;6.900;2022-08-19T00:52:37;101018.16;;;20.76
37452;BMP280;23314;51.114;6.900;2022-08-19T00:55:05;101011.75;;;20.74
37452;BMP280;23314;51.114;6.900;2022-08-19T00:57:37;101010.22;;;20.73
37452;BMP280;23314;51.114;6.900;2022-08-19T01:00:07;101005.25;;;20.71
37452;BMP280;23314;51.114;6.900;2022-08-19T01:02:35;101017.53;;;20.67
37452;BMP280;23314;51.114;6.900;2022-08-19T01:05:05;101019.97;;;20.64
37452;BMP280;23314;51.114;6.900;2022-08-19T01:07:33;101018.19;;;20.61
37452;BMP280;23314;51.114;6.900;2022-08-19T01:09:59;101014.47;;;20.59
37452;BMP280;23314;51.114;6.900;2022-08-19T01:12:25;101011.47;;;20.57
37452;BMP280;23314;51.114;6.900;2022-08-19T01:14:51;101016.59;;;20.55
37452;BMP280;23314;51.114;6.900;2022-08-19T01:17:18;101015.59;;;20.52
37452;BMP280;23314;51.114;6.900;2022-08-19T01:19:46;101016.81;;;20.51
37452;BMP280;23314;51.114;6.900;2022-08-19T01:22:31;101009.63;;;20.48
37452;BMP280;23314;51.114;6.900;2022-08-19T01:25:01;101011.78;;;20.44
37452;BMP280;23314;51.114;6.900;2022-08-19T01:27:27;101012.22;;;20.42
37452;BMP280;23314;51.114;6.900;2022-08-19T01:30:03;101015.13;;;20.39
37452;BMP280;23314;51.114;6.900;2022-08-19T01:32:29;101013.34;;;20.36
37452;BMP280;23314;51.114;6.900;2022-08-19T01:34:55;101009.63;;;20.33
37452;BMP280;23314;51.114;6.900;2022-08-19T01:37:20;101000.00;;;20.32
37452;BMP280;23314;51.114;6.900;2022-08-19T01:39:46;101001.69;;;20.29
37452;BMP280;23314;51.114;6.900;2022-08-19T01:42:11;101005.34;;;20.26
37452;BMP280;23314;51.114;6.900;2022-08-19T01:44:39;101005.78;;;20.25
37452;BMP280;23314;51.114;6.900;2022-08-19T01:47:06;101004.28;;;20.24
37452;BMP280;23314;51.114;6.900;2022-08-19T01:49:31;101004.00;;;20.22
37452;BMP280;23314;51.114;6.900;2022-08-19T01:51:59;101003.72;;;20.20
37452;BMP280;23314;51.114;6.900;2022-08-19T01:54:24;100997.28;;;20.17
37452;BMP280;23314;51.114;6.900;2022-08-19T01:56:51;100994.78;;;20.14
37452;BMP280;23314;51.114;6.900;2022-08-19T01:59:20;100991.03;;;20.11
37452;BMP280;23314;51.114;6.900;2022-08-19T02:01:47;100992.72;;;20.08
37452;BMP280;23314;51.114;6.900;2022-08-19T02:04:13;100997.84;;;20.06
37452;BMP280;23314;51.114;6.900;2022-08-19T02:06:38;100998.34;;;20.05
37452;BMP280;23314;51.114;6.900;2022-08-19T02:09:06;100993.34;;;20.03
37452;BMP280;23314;51.114;6.900;2022-08-19T02:11:34;100995.06;;;20.01
37452;BMP280;23314;51.114;6.900;2022-08-19T02:14:02;100995.97;;;19.98
37452;BMP280;23314;51.114;6.900;2022-08-19T02:16:28;101003.06;;;19.95
37452;BMP280;23314;51.114;6.900;2022-08-19T02:18:54;101008.19;;;19.93
37452;BMP280;23314;51.114;6.900;2022-08-19T02:21:21;101001.75;;;19.90
37452;BMP280;23314;51.114;6.900;2022-08-19T02:23:46;101006.88;;;19.88
37452;BMP280;23314;51.114;6.900;2022-08-19T02:26:12;101001.94;;;19.87
37452;BMP280;23314;51.114;6.900;2022-08-19T02:28:38;101011.28;;;19.86
37452;BMP280;23314;51.114;6.900;2022-08-19T02:31:13;101002.84;;;19.84
37452;BMP280;23314;51.114;6.900;2022-08-19T02:33:39;100994.94;;;19.80
37452;BMP280;23314;51.114;6.900;2022-08-19T02:36:06;100997.63;;;19.80
37452;BMP280;23314;51.114;6.900;2022-08-19T02:38:32;101000.59;;;19.82
37452;BMP280;23314;51.114;6.900;2022-08-19T02:41:01;101015.38;;;19.81
37452;BMP280;23314;51.114;6.900;2022-08-19T02:43:28;101016.59;;;19.80
37452;BMP280;23314;51.114;6.900;2022-08-19T02:45:53;101020.97;;;19.77
37452;BMP280;23314;51.114;6.900;2022-08-19T02:48:22;101022.16;;;19.76
37452;BMP280;23314;51.114;6.900;2022-08-19T02:50:50;101024.28;;;19.72
37452;BMP280;23314;51.114;6.900;2022-08-19T02:53:22;101026.47;;;19.68
37452;BMP280;23314;51.114;6.900;2022-08-19T02:55:49;101032.78;;;19.65
37452;BMP280;23314;51.114;6.900;2022-08-19T02:58:15;101037.91;;;19.63
37452;BMP280;23314;51.114;6.900;2022-08-19T03:00:43;101028.28;;;19.62
37452;BMP280;23314;51.114;6.900;2022-08-19T03:03:09;101028.00;;;19.60
37452;BMP280;23314;51.114;6.900;2022-08-19T03:05:34;101025.75;;;19.58
37452;BMP280;23314;51.114;6.900;2022-08-19T03:08:00;101035.09;;;19.57
37452;BMP280;23314;51.114;6.900;2022-08-19T03:10:25;101023.22;;;19.55
37452;BMP280;23314;51.114;6.900;2022-08-19T03:12:50;101025.19;;;19.54
37452;BMP280;23314;51.114;6.900;2022-08-19T03:15:16;101020.22;;;19.53
37452;BMP280;23314;51.114;6.900;2022-08-19T03:17:41;101017.97;;;19.51
37452;BMP280;23314;51.114;6.900;2022-08-19T03:20:07;101017.69;;;19.49
37452;BMP280;23314;51.114;6.900;2022-08-19T03:22:32;101019.19;;;19.50
37452;BMP280;23314;51.114;6.900;2022-08-19T03:24:58;101025.34;;;19.51
37452;BMP280;23314;51.114;6.900;2022-08-19T03:27:24;101016.19;;;19.48
37452;BMP280;23314;51.114;6.900;2022-08-19T03:29:49;101007.31;;;19.48
37452;BMP280;23314;51.114;6.900;2022-08-19T03:32:15;101016.66;;;19.47
37452;BMP280;23314;51.114;6.900;2022-08-19T03:34:40;101022.06;;;19.47
37452;BMP280;23314;51.114;6.900;2022-08-19T03:37:08;101029.44;;;19.46
37452;BMP280;23314;51.114;6.900;2022-08-19T03:39:36;101024.03;;;19.46
37452;BMP280;23314;51.114;6.900;2022-08-19T03:42:02;101024.31;;;19.48
37452;BMP280;23314;51.114;6.900;2022-08-19T03:44:28;101028.97;;;19.48
37452;BMP280;23314;51.114;6.900;2022-08-19T03:46:56;101036.63;;;19.49
37452;BMP280;23314;51.114;6.900;2022-08-19T03:49:24;101041.13;;;19.52
37452;BMP280;23314;51.114;6.900;2022-08-19T03:51:50;101052.81;;;19.58
37452;BMP280;23314;51.114;6.900;2022-08-19T03:54:20;101047.81;;;19.66
37452;BMP280;23314;51.114;6.900;2022-08-19T03:56:47;101043.50;;;19.74
37452;BMP280;23314;51.114;6.900;2022-08-19T03:59:16;101041.97;;;19.83
37452;BMP280;23314;51.114;6.900;2022-08-19T04:01:42;101045.34;;;19.92
37452;BMP280;23314;51.114;6.900;2022-08-19T04:04:08;101045.00;;;20.00
37452;BMP280;23314;51.114;6.900;2022-08-19T04:06:36;101045.09;;;20.05
37452;BMP280;23314;51.114;6.900;2022-08-19T04:09:06;101049.59;;;20.08
37452;BMP280;23314;51.114;6.900;2022-08-19T04:11:54;101044.19;;;20.08
37452;BMP280;23314;51.114;6.900;2022-08-19T04:14:24;101047.63;;;20.09
37452;BMP280;23314;51.114;6.900;2022-08-19T04:16:50;101051.09;;;20.09
37452;BMP280;23314;51.114;6.900;2022-08-19T04:19:18;101037.56;;;20.09
37452;BMP280;23314;51.114;6.900;2022-08-19T04:21:45;101040.69;;;20.08
37452;BMP280;23314;51.114;6.900;2022-08-19T04:24:12;101042.22;;;20.09
37452;BMP280;23314;51.114;6.900;2022-08-19T04:26:37;101040.25;;;20.09
37452;BMP280;23314;51.114;6.900;2022-08-19T04:29:15;101043.41;;;20.08
37452;BMP280;23314;51.114;6.900;2022-08-19T04:31:42;101044.38;;;20.05
37452;BMP280;23314;51.114;6.900;2022-08-19T04:34:10;101045.75;;;20.00
37452;BMP280;23314;51.114;6.900;2022-08-19T04:36:40;101043.19;;;19.97
37452;BMP280;23314;51.114;6.900;2022-08-19T04:39:14;101045.19;;;19.96
37452;BMP280;23314;51.114;6.900;2022-08-19T04:41:39;101055.69;;;19.94
37452;BMP280;23314;51.114;6.900;2022-08-19T04:44:24;101054.69;;;19.91
37452;BMP280;23314;51.114;6.900;2022-08-19T04:46:50;101059.38;;;19.91
37452;BMP280;23314;51.114;6.900;2022-08-19T04:49:20;101067.00;;;19.92
37452;BMP280;23314;51.114;6.900;2022-08-19T04:51:47;101064.88;;;19.97
37452;BMP280;23314;51.114;6.900;2022-08-19T04:54:14;101070.88;;;20.01
37452;BMP280;23314;51.114;6.900;2022-08-19T04:56:40;101067.97;;;20.04
37452;BMP280;23314;51.114;6.900;2022-08-19T04:59:06;101074.72;;;20.09
37452;BMP280;23314;51.114;6.900;2022-08-19T05:01:33;101071.81;;;20.12
37452;BMP280;23314;51.114;6.900;2022-08-19T05:04:03;101075.84;;;20.17
37452;BMP280;23314;51.114;6.900;2022-08-19T05:06:30;101077.63;;;20.20
37452;BMP280;23314;51.114;6.900;2022-08-19T05:09:00;101088.25;;;20.24
37452;BMP280;23314;51.114;6.900;2022-08-19T05:11:28;101093.03;;;20.29
37452;BMP280;23314;51.114;6.900;2022-08-19T05:13:54;101089.13;;;20.30
37452;BMP280;23314;51.114;6.900;2022-08-19T05:16:21;101099.75;;;20.34
37452;BMP280;23314;51.114;6.900;2022-08-19T05:18:47;101099.31;;;20.35
37452;BMP280;23314;51.114;6.900;2022-08-19T05:21:32;101106.53;;;20.38
37452;BMP280;23314;51.114;6.900;2022-08-19T05:24:17;101110.25;;;20.41
37452;BMP280;23314;51.114;6.900;2022-08-19T05:26:45;101114.75;;;20.44
37452;BMP280;23314;51.114;6.900;2022-08-19T05:29:13;101107.63;;;20.46
37452;BMP280;23314;51.114;6.900;2022-08-19T05:31:38;101110.16;;;20.50
37452;BMP280;23314;51.114;6.900;2022-08-19T05:34:04;101111.00;;;20.56
37452;BMP280;23314;51.114;6.900;2022-08-19T05:36:36;101107.91;;;20.63
37452;BMP280;23314;51.114;6.900;2022-08-19T05:39:04;101112.69;;;20.69
37452;BMP280;23314;51.114;6.900;2022-08-19T05:41:30;101110.06;;;20.74
37452;BMP280;23314;51.114;6.900;2022-08-19T05:43:57;101112.84;;;20.80
37452;BMP280;23314;51.114;6.900;2022-08-19T05:46:23;101112.75;;;20.89
37452;BMP280;23314;51.114;6.900;2022-08-19T05:48:48;101100.63;;;20.99
37452;BMP280;23314;51.114;6.900;2022-08-19T05:51:14;101109.09;;;21.07
37452;BMP280;23314;51.114;6.900;2022-08-19T05:53:41;101107.25;;;21.13
37452;BMP280;23314;51.114;6.900;2022-08-19T05:56:11;101112.72;;;21.19
37452;BMP280;23314;51.114;6.900;2022-08-19T05:58:38;101101.44;;;21.26
37452;BMP280;23314;51.114;6.900;2022-08-19T06:01:09;101104.06;;;21.36
37452;BMP280;23314;51.114;6.900;2022-08-19T06:03:36;101110.31;;;21.42
37452;BMP280;23314;51.114;6.900;2022-08-19T06:06:03;101102.22;;;21.47
37452;BMP280;23314;51.114;6.900;2022-08-19T06:08:29;101107.72;;;21.53
37452;BMP280;23314;51.114;6.900;2022-08-19T06:10:55;101109.78;;;21.58
37452;BMP280;23314;51.114;6.900;2022-08-19T06:13:21;101114.25;;;21.61
37452;BMP280;23314;51.114;6.900;2022-08-19T06:15:48;101112.28;;;21.62
37452;BMP280;23314;51.114;6.900;2022-08-19T06:18:14;101115.97;;;21.59
37452;BMP280;23314;51.114;6.900;2022-08-19T06:20:40;101113.44;;;21.55
37452;BMP280;23314;51.114;6.900;2022-08-19T06:23:05;101103.72;;;21.48
37452;BMP280;23314;51.114;6.900;2022-08-19T06:25:30;101103.94;;;21.45
37452;BMP280;23314;51.114;6.900;2022-08-19T06:27:56;101104.38;;;21.43
37452;BMP280;23314;51.114;6.900;2022-08-19T06:30:21;101093.47;;;21.38
37452;BMP280;23314;51.114;6.900;2022-08-19T06:32:46;101101.63;;;21.38
37452;BMP280;23314;51.114;6.900;2022-08-19T06:35:12;101110.03;;;21.40
37452;BMP280;23314;51.114;6.900;2022-08-19T06:37:40;101111.97;;;21.39
37452;BMP280;23314;51.114;6.900;2022-08-19T06:40:06;101113.97;;;21.39
37452;BMP280;23314;51.114;6.900;2022-08-19T06:42:33;101106.75;;;21.36
37452;BMP280;23314;51.114;6.900;2022-08-19T06:45:00;101103.50;;;21.31
37452;BMP280;23314;51.114;6.900;2022-08-19T06:47:29;101094.63;;;21.31
37452;BMP280;23314;51.114;6.900;2022-08-19T06:49:55;101101.06;;;21.33
37452;BMP280;23314;51.114;6.900;2022-08-19T06:52:25;101106.50;;;21.33
37452;BMP280;23314;51.114;6.900;2022-08-19T06:54:50;101105.56;;;21.37
37452;BMP280;23314;51.114;6.900;2022-08-19T06:57:15;101109.56;;;21.41
37452;BMP280;23314;51.114;6.900;2022-08-19T06:59:41;101107.09;;;21.43
37452;BMP280;23314;51.114;6.900;2022-08-19T07:02:07;101111.53;;;21.41
37452;BMP280;23314;51.114;6.900;2022-08-19T07:04:33;101117.41;;;21.39
37452;BMP280;23314;51.114;6.900;2022-08-19T07:07:08;101109.78;;;21.38
37452;BMP280;23314;51.114;6.900;2022-08-19T07:09:40;101114.91;;;21.36
37452;BMP280;23314;51.114;6.900;2022-08-19T07:12:07;101118.16;;;21.40
37452;BMP280;23314;51.114;6.900;2022-08-19T07:14:35;101128.56;;;21.41
37452;BMP280;23314;51.114;6.900;2022-08-19T07:17:06;101119.97;;;21.43
37452;BMP280;23314;51.114;6.900;2022-08-19T07:19:33;101129.88;;;21.46
37452;BMP280;23314;51.114;6.900;2022-08-19T07:22:00;101131.38;;;21.47
37452;BMP280;23314;51.114;6.900;2022-08-19T07:24:27;101133.88;;;21.50
37452;BMP280;23314;51.114;6.900;2022-08-19T07:26:56;101140.31;;;21.53
37452;BMP280;23314;51.114;6.900;2022-08-19T07:29:24;101141.81;;;21.54
37452;BMP280;23314;51.114;6.900;2022-08-19T07:31:50;101144.34;;;21.58
37452;BMP280;23314;51.114;6.900;2022-08-19T07:34:16;101150.28;;;21.62
37452;BMP280;23314;51.114;6.900;2022-08-19T07:36:42;101152.59;;;21.69
37452;BMP280;23314;51.114;6.900;2022-08-19T07:39:20;101160.34;;;21.76
37452;BMP280;23314;51.114;6.900;2022-08-19T07:41:46;101158.66;;;21.79
37452;BMP280;23314;51.114;6.900;2022-08-19T07:44:12;101160.69;;;21.84
37452;BMP280;23314;51.114;6.900;2022-08-19T07:46:41;101166.66;;;21.88
37452;BMP280;23314;51.114;6.900;2022-08-19T07:49:07;101173.66;;;21.95
37452;BMP280;23314;51.114;6.900;2022-08-19T07:51:34;101172.78;;;22.03
37452;BMP280;23314;51.114;6.900;2022-08-19T07:54:00;101173.03;;;22.06
37452;BMP280;23314;51.114;6.900;2022-08-19T07:56:26;101181.78;;;22.15
37452;BMP280;23314;51.114;6.900;2022-08-19T07:58:52;101180.38;;;22.20
37452;BMP280;23314;51.114;6.900;2022-08-19T08:01:21;101184.69;;;22.32
37452;BMP280;23314;51.114;6.900;2022-08-19T08:03:49;101181.66;;;22.51
37452;BMP280;23314;51.114;6.900;2022-08-19T08:06:33;101175.19;;;22.74
37452;BMP280;23314;51.114;6.900;2022-08-19T08:09:24;101181.50;;;22.92
37452;BMP280;23314;51.114;6.900;2022-08-19T08:11:54;101182.38;;;23.09
37452;BMP280;23314;51.114;6.900;2022-08-19T08:14:26;101172.03;;;23.14
37452;BMP280;23314;51.114;6.900;2022-08-19T08:16:52;101175.81;;;23.27
37452;BMP280;23314;51.114;6.900;2022-08-19T08:19:22;101180.84;;;23.40
37452;BMP280;23314;51.114;6.900;2022-08-19T08:21:49;101180.66;;;23.61
37452;BMP280;23314;51.114;6.900;2022-08-19T08:24:15;101179.28;;;23.83
37452;BMP280;23314;51.114;6.900;2022-08-19T08:26:41;101186.53;;;24.08
37452;BMP280;23314;51.114;6.900;2022-08-19T08:29:07;101181.84;;;24.31
37452;BMP280;23314;51.114;6.900;2022-08-19T08:31:36;101187.56;;;24.56
37452;BMP280;23314;51.114;6.900;2022-08-19T08:34:02;101189.28;;;24.76
37452;BMP280;23314;51.114;6.900;2022-08-19T08:36:27;101181.09;;;24.82
37452;BMP280;23314;51.114;6.900;2022-08-19T08:38:53;101181.09;;;24.93
37452;BMP280;23314;51.114;6.900;2022-08-19T08:44:17;101183.50;;;25.19
37452;BMP280;23314;51.114;6.900;2022-08-19T08:46:54;101185.69;;;25.32
37452;BMP280;23314;51.114;6.900;2022-08-19T08:52:06;101182.88;;;25.55
37452;BMP280;23314;51.114;6.900;2022-08-19T08:54:38;101179.38;;;25.60
37452;BMP280;23314;51.114;6.900;2022-08-19T08:57:13;101179.38;;;25.60
37452;BMP280;23314;51.114;6.900;2022-08-19T08:59:42;101170.25;;;25.52
37452;BMP280;23314;51.114;6.900;2022-08-19T09:02:08;101182.44;;;25.45
37452;BMP280;23314;51.114;6.900;2022-08-19T09:04:38;101177.00;;;25.39
37452;BMP280;23314;51.114;6.900;2022-08-19T09:09:52;101178.44;;;25.46
37452;BMP280;23314;51.114;6.900;2022-08-19T09:12:42;101178.91;;;25.56
37452;BMP280;23314;51.114;6.900;2022-08-19T09:15:13;101174.72;;;25.49
37452;BMP280;23314;51.114;6.900;2022-08-19T09:17:39;101174.91;;;25.57
37452;BMP280;23314;51.114;6.900;2022-08-19T09:20:23;101179.59;;;25.68
37452;BMP280;23314;51.114;6.900;2022-08-19T09:22:49;101173.63;;;25.69
37452;BMP280;23314;51.114;6.900;2022-08-19T09:25:21;101175.78;;;25.82
37452;BMP280;23314;51.114;6.900;2022-08-19T09:27:51;101170.50;;;25.95
37452;BMP280;23314;51.114;6.900;2022-08-19T09:30:24;101174.38;;;26.06
37452;BMP280;23314;51.114;6.900;2022-08-19T09:32:50;101179.13;;;26.05
37452;BMP280;23314;51.114;6.900;2022-08-19T09:35:18;101175.56;;;26.16
37452;BMP280;23314;51.114;6.900;2022-08-19T09:37:44;101180.97;;;26.22
37452;BMP280;23314;51.114;6.900;2022-08-19T09:40:10;101172.81;;;26.16
37452;BMP280;23314;51.114;6.900;2022-08-19T09:42:36;101175.63;;;26.10
37452;BMP280;23314;51.114;6.900;2022-08-19T09:45:03;101171.88;;;26.13
37452;BMP280;23314;51.114;6.900;2022-08-19T09:47:29;101169.97;;;26.33
37452;BMP280;23314;51.114;6.900;2022-08-19T09:49:54;101168.88;;;26.42
37452;BMP280;23314;51.114;6.900;2022-08-19T09:52:20;101163.84;;;26.52
37452;BMP280;23314;51.114;6.900;2022-08-19T09:54:45;101168.41;;;26.68
37452;BMP280;23314;51.114;6.900;2022-08-19T09:57:12;101181.28;;;26.73
37452;BMP280;23314;51.114;6.900;2022-08-19T09:59:38;101164.13;;;26.73
37452;BMP280;23314;51.114;6.900;2022-08-19T10:02:04;101164.78;;;26.84
37452;BMP280;23314;51.114;6.900;2022-08-19T10:04:29;101167.09;;;26.99
37452;BMP280;23314;51.114;6.900;2022-08-19T10:07:14;101166.13;;;27.16
37452;BMP280;23314;51.114;6.900;2022-08-19T10:09:39;101157.63;;;27.38
37452;BMP280;23314;51.114;6.900;2022-08-19T10:12:06;101156.59;;;27.41
37452;BMP280;23314;51.114;6.900;2022-08-19T10:14:32;101158.94;;;27.51
37452;BMP280;23314;51.114;6.900;2022-08-19T10:16:57;101163.63;;;27.75
37452;BMP280;23314;51.114;6.900;2022-08-19T10:19:23;101167.25;;;27.64
37452;BMP280;23314;51.114;6.900;2022-08-19T10:21:48;101148.66;;;27.57
37452;BMP280;23314;51.114;6.900;2022-08-19T10:24:14;101134.25;;;27.56
37452;BMP280;23314;51.114;6.900;2022-08-19T10:26:40;101134.72;;;27.74
37452;BMP280;23314;51.114;6.900;2022-08-19T10:29:09;101140.19;;;27.74
37452;BMP280;23314;51.114;6.900;2022-08-19T10:31:35;101143.53;;;27.67
37452;BMP280;23314;51.114;6.900;2022-08-19T10:34:00;101140.50;;;27.70
37452;BMP280;23314;51.114;6.900;2022-08-19T10:36:32;101150.81;;;27.64
37452;BMP280;23314;51.114;6.900;2022-08-19T10:39:00;101148.16;;;27.58
37452;BMP280;23314;51.114;6.900;2022-08-19T10:41:32;101144.06;;;27.65
37452;BMP280;23314;51.114;6.900;2022-08-19T10:44:02;101147.72;;;27.87
37452;BMP280;23314;51.114;6.900;2022-08-19T10:46:29;101149.31;;;27.95
37452;BMP280;23314;51.114;6.900;2022-08-19T10:48:58;101148.28;;;27.99
37452;BMP280;23314;51.114;6.900;2022-08-19T10:51:23;101146.44;;;28.07
37452;BMP280;23314;51.114;6.900;2022-08-19T10:54:07;101155.06;;;28.11
37452;BMP280;23314;51.114;6.900;2022-08-19T10:56:33;101151.53;;;28.29
37452;BMP280;23314;51.114;6.900;2022-08-19T10:59:22;101141.84;;;28.55
37452;BMP280;23314;51.114;6.900;2022-08-19T11:01:49;101137.81;;;28.69
37452;BMP280;23314;51.114;6.900;2022-08-19T11:04:15;101142.25;;;28.73
37452;BMP280;23314;51.114;6.900;2022-08-19T11:06:47;101144.34;;;28.80
37452;BMP280;23314;51.114;6.900;2022-08-19T11:09:15;101151.91;;;28.87
37452;BMP280;23314;51.114;6.900;2022-08-19T11:11:41;101143.19;;;28.88
37452;BMP280;23314;51.114;6.900;2022-08-19T11:14:08;101148.53;;;28.94
37452;BMP280;23314;51.114;6.900;2022-08-19T11:16:35;101136.81;;;28.80
37452;BMP280;23314;51.114;6.900;2022-08-19T11:19:01;101141.06;;;28.68
37452;BMP280;23314;51.114;6.900;2022-08-19T11:21:33;101133.16;;;28.64
37452;BMP280;23314;51.114;6.900;2022-08-19T11:24:05;101135.69;;;28.76
37452;BMP280;23314;51.114;6.900;2022-08-19T11:26:31;101143.09;;;28.67
37452;BMP280;23314;51.114;6.900;2022-08-19T11:28:58;101139.84;;;28.42
37452;BMP280;23314;51.114;6.900;2022-08-19T11:31:27;101138.28;;;28.14
37452;BMP280;23314;51.114;6.900;2022-08-19T11:33:52;101139.41;;;27.92
37452;BMP280;23314;51.114;6.900;2022-08-19T11:36:20;101138.47;;;27.90
37452;BMP280;23314;51.114;6.900;2022-08-19T11:38:49;101140.34;;;27.82
37452;BMP280;23314;51.114;6.900;2022-08-19T11:41:17;101130.81;;;27.83
37452;BMP280;23314;51.114;6.900;2022-08-19T11:43:42;101126.44;;;27.93
37452;BMP280;23314;51.114;6.900;2022-08-19T11:46:11;101136.56;;;27.98
37452;BMP280;23314;51.114;6.900;2022-08-19T11:48:37;101126.97;;;27.91
37452;BMP280;23314;51.114;6.900;2022-08-19T11:51:22;101120.44;;;27.94
37452;BMP280;23314;51.114;6.900;2022-08-19T11:53:49;101117.50;;;28.06
37452;BMP280;23314;51.114;6.900;2022-08-19T11:56:16;101120.59;;;28.16
37452;BMP280;23314;51.114;6.900;2022-08-19T11:58:42;101124.25;;;28.18
37452;BMP280;23314;51.114;6.900;2022-08-19T12:01:09;101117.53;;;28.19
37452;BMP280;23314;51.114;6.900;2022-08-19T12:03:36;101117.22;;;28.23
37452;BMP280;23314;51.114;6.900;2022-08-19T12:06:06;101112.47;;;28.23
37452;BMP280;23314;51.114;6.900;2022-08-19T12:08:32;101113.41;;;28.26
37452;BMP280;23314;51.114;6.900;2022-08-19T12:10:57;101103.50;;;28.36
37452;BMP280;23314;51.114;6.900;2022-08-19T12:13:22;101113.09;;;28.43
37452;BMP280;23314;51.114;6.900;2022-08-19T12:15:48;101112.03;;;28.32
37452;BMP280;23314;51.114;6.900;2022-08-19T12:18:14;101111.44;;;28.26
37452;BMP280;23314;51.114;6.900;2022-08-19T12:20:41;101110.59;;;28.31
37452;BMP280;23314;51.114;6.900;2022-08-19T12:23:08;101100.22;;;28.38
37452;BMP280;23314;51.114;6.900;2022-08-19T12:25:35;101104.34;;;28.44
37452;BMP280;23314;51.114;6.900;2022-08-19T12:28:01;101106.25;;;28.63
37452;BMP280;23314;51.114;6.900;2022-08-19T12:30:27;101100.81;;;28.84
37452;BMP280;23314;51.114;6.900;2022-08-19T12:32:52;101104.34;;;29.05
37452;BMP280;23314;51.114;6.900;2022-08-19T12:35:18;101088.13;;;29.29
37452;BMP280;23314;51.114;6.900;2022-08-19T12:37:46;101089.72;;;29.45
37452;BMP280;23314;51.114;6.900;2022-08-19T12:40:11;101081.81;;;29.62
37452;BMP280;23314;51.114;6.900;2022-08-19T12:42:38;101087.25;;;29.84
37452;BMP280;23314;51.114;6.900;2022-08-19T12:45:09;101085.84;;;29.90
37452;BMP280;23314;51.114;6.900;2022-08-19T12:47:35;101091.47;;;30.06
37452;BMP280;23314;51.114;6.900;2022-08-19T12:50:00;101088.50;;;30.32
37452;BMP280;23314;51.114;6.900;2022-08-19T12:52:26;101095.63;;;30.35
37452;BMP280;23314;51.114;6.900;2022-08-19T12:54:54;101094.72;;;30.04
37452;BMP280;23314;51.114;6.900;2022-08-19T12:57:19;101094.22;;;29.77
37452;BMP280;23314;51.114;6.900;2022-08-19T12:59:44;101081.00;;;29.54
37452;BMP280;23314;51.114;6.900;2022-08-19T13:02:10;101080.25;;;29.33
37452;BMP280;23314;51.114;6.900;2022-08-19T13:04:35;101085.09;;;29.19
37452;BMP280;23314;51.114;6.900;2022-08-19T13:07:06;101086.59;;;29.06
37452;BMP280;23314;51.114;6.900;2022-08-19T13:09:31;101079.44;;;29.03
37452;BMP280;23314;51.114;6.900;2022-08-19T13:11:57;101077.91;;;29.16
37452;BMP280;23314;51.114;6.900;2022-08-19T13:14:22;101070.94;;;29.15
37452;BMP280;23314;51.114;6.900;2022-08-19T13:16:48;101065.66;;;29.17
37452;BMP280;23314;51.114;6.900;2022-08-19T13:19:13;101055.59;;;29.19
37452;BMP280;23314;51.114;6.900;2022-08-19T13:21:38;101061.75;;;29.33
37452;BMP280;23314;51.114;6.900;2022-08-19T13:24:04;101059.75;;;29.55
37452;BMP280;23314;51.114;6.900;2022-08-19T13:26:29;101057.69;;;29.76
37452;BMP280;23314;51.114;6.900;2022-08-19T13:28:54;101055.75;;;29.85
37452;BMP280;23314;51.114;6.900;2022-08-19T13:31:40;101060.00;;;29.93
37452;BMP280;23314;51.114;6.900;2022-08-19T13:34:34;101055.41;;;29.88
37452;BMP280;23314;51.114;6.900;2022-08-19T13:37:01;101055.00;;;29.84
37452;BMP280;23314;51.114;6.900;2022-08-19T13:39:30;101049.84;;;29.80
37452;BMP280;23314;51.114;6.900;2022-08-19T13:41:58;101043.38;;;29.70
37452;BMP280;23314;51.114;6.900;2022-08-19T13:44:26;101037.66;;;29.68
37452;BMP280;23314;51.114;6.900;2022-08-19T13:46:59;101042.59;;;29.62
37452;BMP280;23314;51.114;6.900;2022-08-19T13:49:27;101039.22;;;29.56
37452;BMP280;23314;51.114;6.900;2022-08-19T13:51:56;101039.63;;;29.60
37452;BMP280;23314;51.114;6.900;2022-08-19T13:54:21;101036.88;;;29.60
37452;BMP280;23314;51.114;6.900;2022-08-19T13:56:47;101037.09;;;29.62
37452;BMP280;23314;51.114;6.900;2022-08-19T13:59:13;101030.91;;;29.69
37452;BMP280;23314;51.114;6.900;2022-08-19T14:01:39;101025.47;;;29.77
37452;BMP280;23314;51.114;6.900;2022-08-19T14:04:05;101024.00;;;29.84
37452;BMP280;23314;51.114;6.900;2022-08-19T14:06:31;101027.94;;;29.96
37452;BMP280;23314;51.114;6.900;2022-08-19T14:08:56;101018.50;;;30.12